Aeroporto :
LOGIN :

Iscrizione | Disclaimer

   EN    FR    IT 

 










Sommario :    VFR   VFR Marginale   IFR   IFR Intensivo   IFR Molto Intensivo
Visibilità : 
Base nubi : 
>= 8 km
>= 3000ft
5 / 8 km
1000 / 3000 ft
1500m / 5 km
500 / 1000 ft
800 / 1500m
200 / 500 ft
< 800m
< 200 ft
Simboli :   Temporali  Nebbia  Neve Forte  Precipitazioni Forti  Vento > 20 kt
SIGMETs :   Varie  Temporali  Ghiacco  Turbolenza  Onda orograficha  Ceneri Vulcaniche






- Altitudine del aeroporto : 20 ft
- Codice IATA : LSI


EGPB - Sumburgh

ULTIMO METAR :
  • 020720Z 30036G51KT 9000 VCSH FEW012CB BKN030 03/M03 Q0991 TEMPO SHRASN

METARs OBSOLETI :
  • 020650Z 30037G55KT 8000 VCSH FEW012CB FEW031 BKN039 03/M04 Q0991 NOSIG
  • 020620Z 29034G54KT 250V050 7000 VCSH FEW005CB SCT017 BKN031 03/M02 Q0991
  • 020550Z AUTO 29026G38KT 9999 SCT017/// BKN033/// BKN049/// 03/M01 Q0991 RERA
  • 020520Z AUTO 30022G32KT 9999 BKN007/// OVC017/// 03/01 Q0992 RERA
  • 020450Z AUTO 28033G44KT 270V330 3800 -RA BKN009/// 04/02 Q0991 RERA

TAF AMD TAF EGPB
Valido dal 02 a 06 ore il 02 a 15 ore UTC


020613Z 0206/0215 28030G40KT 9999 SCT030
TEMPO 0206/0215 29045G55KT 4000 SHRASN BKN010
PROB40
TEMPO 0206/0215 1200 +SHRAGS +SHSN BKN008CB



MetMap, La meteo Aeronautica in un colpo d'occhio ! - Copyright ORBIFLY Dicembre 2007 - Disclaimer

ORBIFLY MET'MAP TEAM :

Programmazione e sviluppo : Alexandra Zaïnal
Concezione : Baudouin d'Aumeries
Aiuto per la programmazione : Marc-Olivier Méhu
Supporto tecnico e logistico : Manuel Goepfert
Aiuto per la traduzione : Arnaldo La Scala

Contatto : metmap@orbifly.com




FONTI E CREDITI :

   NOAA